createdAt,value
2022-11-21T00:01:03.015Z,93140.50
2022-11-21T00:03:30.980Z,93136.88
2022-11-21T00:06:00.393Z,93135.06
2022-11-21T00:08:28.268Z,93137.94
2022-11-21T00:11:00.307Z,93135.56
2022-11-21T00:13:28.329Z,93113.78
2022-11-21T00:15:56.220Z,93087.44
2022-11-21T00:18:24.243Z,93093.38
2022-11-21T00:20:52.105Z,93080.63
2022-11-21T00:23:21.442Z,93095.34
2022-11-21T00:25:49.394Z,93075.78
2022-11-21T00:28:17.374Z,93079.97
2022-11-21T00:30:45.316Z,93067.16
2022-11-21T00:33:13.306Z,93073.75
2022-11-21T00:35:41.223Z,93072.75
2022-11-21T00:38:09.302Z,93088.75
2022-11-21T00:40:38.675Z,93057.81
2022-11-21T00:43:06.704Z,93057.44
2022-11-21T00:45:34.564Z,93059.44
2022-11-21T00:48:02.534Z,93076.38
2022-11-21T00:50:30.618Z,93090.16
2022-11-21T00:52:58.919Z,93060.75
2022-11-21T00:55:27.084Z,93053.97
2022-11-21T00:57:56.426Z,93040.94
2022-11-21T01:00:24.564Z,93053.09
2022-11-21T01:02:52.473Z,93040.56
2022-11-21T01:05:20.480Z,93044.53
2022-11-21T01:07:49.703Z,93056.56
2022-11-21T01:10:17.797Z,93040.66
2022-11-21T01:12:45.777Z,93037.81
2022-11-21T01:15:15.813Z,93040.00
2022-11-21T01:17:43.855Z,93053.63
2022-11-21T01:20:12.452Z,93056.44
2022-11-21T01:22:40.502Z,93039.34
2022-11-21T01:25:09.102Z,93040.88
2022-11-21T01:27:37.200Z,93045.81
2022-11-21T01:30:05.896Z,93036.88
2022-11-21T01:32:35.268Z,93058.66
2022-11-21T01:35:03.175Z,93057.06
2022-11-21T01:37:31.124Z,93031.13
2022-11-21T01:39:59.104Z,93024.34
2022-11-21T01:42:27.104Z,93048.06
2022-11-21T01:44:55.858Z,93024.75
2022-11-21T01:47:23.835Z,93009.97
2022-11-21T01:49:54.486Z,93031.84
2022-11-21T01:52:26.700Z,93028.28
2022-11-21T01:54:58.092Z,93013.13
2022-11-21T01:57:30.043Z,93011.91
2022-11-21T02:00:02.031Z,93011.69
2022-11-21T02:02:34.854Z,93015.84
2022-11-21T02:05:07.507Z,93027.84
2022-11-21T02:07:40.452Z,93034.28
2022-11-21T02:10:10.684Z,93033.63
2022-11-21T02:12:44.787Z,93047.81
2022-11-21T02:15:13.612Z,93033.41
2022-11-21T02:17:41.761Z,93032.75
2022-11-21T02:20:13.967Z,93017.75
2022-11-21T02:22:49.286Z,93035.09
2022-11-21T02:25:20.879Z,93034.53
2022-11-21T02:27:51.417Z,93026.53
2022-11-21T02:30:20.217Z,93040.66
2022-11-21T02:32:48.376Z,93016.28
2022-11-21T02:35:18.545Z,93038.22
2022-11-21T02:37:48.390Z,93046.69
2022-11-21T02:40:22.341Z,93042.22
2022-11-21T02:43:00.505Z,93006.69
2022-11-21T02:45:33.311Z,92995.59
2022-11-21T02:48:04.249Z,92986.38
2022-11-21T02:50:34.054Z,93007.84
2022-11-21T02:53:02.117Z,92994.59
2022-11-21T02:55:31.449Z,92990.25
2022-11-21T02:58:04.644Z,92955.88
2022-11-21T03:00:34.071Z,92974.66
2022-11-21T03:03:02.075Z,92991.13
2022-11-21T03:05:30.295Z,92957.47
2022-11-21T03:07:58.590Z,92955.91
2022-11-21T03:10:26.759Z,92958.78
2022-11-21T03:13:01.205Z,92984.53
2022-11-21T03:15:30.999Z,92963.31
2022-11-21T03:18:01.249Z,92965.97
2022-11-21T03:20:29.338Z,92977.97
2022-11-21T03:22:57.263Z,92977.28
2022-11-21T03:25:25.787Z,92974.38
2022-11-21T03:27:55.522Z,92990.38
2022-11-21T03:30:25.353Z,92996.31
2022-11-21T03:32:56.394Z,93003.09
2022-11-21T03:35:24.513Z,93006.63
2022-11-21T03:37:52.589Z,92977.38
2022-11-21T03:40:20.653Z,92958.31
2022-11-21T03:42:48.582Z,92988.06
2022-11-21T03:45:18.012Z,92976.19
2022-11-21T03:47:45.990Z,92992.75
2022-11-21T03:50:18.643Z,93003.59
2022-11-21T03:52:46.633Z,93002.13
2022-11-21T03:55:15.297Z,92983.72
2022-11-21T03:57:43.255Z,92977.28
2022-11-21T04:00:12.458Z,92991.44
2022-11-21T04:02:41.774Z,92960.00
2022-11-21T04:05:10.402Z,92987.19
2022-11-21T04:07:38.545Z,92977.38
2022-11-21T04:10:07.167Z,92959.66
2022-11-21T04:12:35.178Z,92954.38
2022-11-21T04:15:03.202Z,92980.25
2022-11-21T04:17:31.978Z,92965.16
2022-11-21T04:20:01.404Z,92973.09
2022-11-21T04:22:29.404Z,92948.44
2022-11-21T04:24:57.357Z,92941.31
2022-11-21T04:27:25.698Z,92958.78
2022-11-21T04:29:53.671Z,92972.28
2022-11-21T04:32:21.615Z,92985.91
2022-11-21T04:34:49.549Z,93006.56
2022-11-21T04:37:18.962Z,92995.84
2022-11-21T04:39:46.977Z,93011.75
2022-11-21T04:42:14.898Z,93022.09
2022-11-21T04:44:42.912Z,93015.97
2022-11-21T04:47:10.951Z,92997.03
2022-11-21T04:49:39.020Z,92988.94
2022-11-21T04:52:07.207Z,93004.38
2022-11-21T04:54:36.693Z,93019.69
2022-11-21T04:57:04.947Z,92999.81
2022-11-21T04:59:32.944Z,93021.09
2022-11-21T05:02:00.885Z,92997.50
2022-11-21T05:04:29.055Z,93020.63
2022-11-21T05:06:57.226Z,93015.69
2022-11-21T05:09:25.184Z,93022.19
2022-11-21T05:12:11.858Z,93027.16
2022-11-21T05:14:39.907Z,93002.03
2022-11-21T05:17:08.162Z,93038.56
2022-11-21T05:19:36.217Z,93047.59
2022-11-21T05:22:04.289Z,93039.06
2022-11-21T05:24:32.537Z,93040.69
2022-11-21T05:27:01.879Z,93053.50
2022-11-21T05:29:29.854Z,93044.19
2022-11-21T05:31:58.259Z,93050.16
2022-11-21T05:34:26.541Z,93056.72
2022-11-21T05:36:57.309Z,93055.38
2022-11-21T05:39:25.935Z,93055.78
2022-11-21T05:41:58.498Z,93087.69
2022-11-21T05:44:31.462Z,93081.75
2022-11-21T05:46:59.637Z,93101.88
2022-11-21T05:49:27.621Z,93127.59
2022-11-21T05:51:55.594Z,93102.25
2022-11-21T05:54:23.671Z,93081.09
2022-11-21T05:56:51.586Z,93113.75
2022-11-21T05:59:19.504Z,93143.56
2022-11-21T06:05:49.321Z,93152.84
2022-11-21T06:12:16.169Z,93167.13
2022-11-21T06:17:43.391Z,93157.69
2022-11-21T06:25:59.852Z,93169.59
2022-11-21T06:29:16.692Z,93194.31
2022-11-21T06:32:14.005Z,93177.75
2022-11-21T06:34:56.943Z,93177.56
2022-11-21T06:43:38.088Z,93212.34
2022-11-21T14:49:30.510Z,93617.56
2022-11-21T14:56:09.564Z,93638.41
2022-11-21T15:17:05.678Z,93664.75
2022-11-21T16:07:40.965Z,93657.06
2022-11-21T16:13:11.064Z,93663.94
2022-11-21T16:15:47.013Z,93666.00
2022-11-21T16:33:37.761Z,93690.94
2022-11-21T16:36:23.919Z,93684.47
2022-11-21T16:45:00.743Z,93710.94
2022-11-21T16:47:48.784Z,93706.69
2022-11-21T16:50:22.860Z,93692.84
2022-11-21T16:52:53.327Z,93688.31
2022-11-21T16:55:21.920Z,93695.34
2022-11-21T16:57:50.547Z,93701.91
2022-11-21T17:00:19.842Z,93710.00
2022-11-21T17:02:48.476Z,93699.22
2022-11-21T17:05:16.775Z,93697.75
2022-11-21T17:07:45.830Z,93713.94
2022-11-21T17:10:17.408Z,93737.38
2022-11-21T17:12:47.208Z,93723.34
2022-11-21T17:15:40.368Z,93745.59
2022-11-21T17:21:08.338Z,93729.88
2022-11-21T17:24:00.569Z,93728.91
2022-11-21T17:30:13.852Z,93731.72
2022-11-21T17:32:47.032Z,93740.00
2022-11-21T17:35:17.286Z,93740.00
2022-11-21T17:37:50.033Z,93737.22
2022-11-21T17:43:30.853Z,93737.22
2022-11-21T18:06:58.848Z,93773.09
2022-11-21T18:15:50.219Z,93746.03
2022-11-21T23:08:12.176Z,93941.47
2022-11-21T23:10:40.904Z,93932.56
2022-11-21T23:13:09.102Z,93959.50
2022-11-21T23:15:37.273Z,93958.41
2022-11-21T23:18:05.687Z,93953.06
2022-11-21T23:20:33.940Z,93944.88
2022-11-21T23:23:02.314Z,93945.66
2022-11-21T23:25:31.908Z,93936.91
2022-11-21T23:28:00.043Z,93926.47
2022-11-21T23:30:28.157Z,93918.56
2022-11-21T23:32:56.745Z,93933.38
2022-11-21T23:35:24.924Z,93935.66
2022-11-21T23:37:53.040Z,93920.38
2022-11-21T23:40:21.497Z,93935.44
2022-11-21T23:42:50.981Z,93919.13
2022-11-21T23:45:19.286Z,93933.53
2022-11-21T23:47:47.817Z,93928.31
2022-11-21T23:50:16.749Z,93930.72
2022-11-21T23:52:44.835Z,93938.44
2022-11-21T23:55:13.250Z,93934.41
2022-11-21T23:57:41.604Z,93940.22
